Toledo Express Airport
KTOL : rendu visible

Aérodrome :











RETROUVEZ-NOUS SUR...

 
LOGIN :

S'inscrire | Disclaimer

   EN    FR    IT 

 









Légende :    VFR   VFR Marginal   IFR   IFR Intensif   IFR Très Intensif
Visi : 
Plafond : 
>= 8 km
>= 3000ft
5 à 8 km
1000 à 3000 ft
1500m à 5 km
500 à 1000 ft
800 à 1500m
200 à 500 ft
< 800m
< 200 ft
Symboles :   Orages  Brouillard  Fortes neiges  Fortes précipitations  Vent > 20 kt







- Altitude de l'aérodrome : 683 ft
- Code IATA : TOL


KTOL - Toledo Express

DERNIER METAR :
  • 221052Z 28008KT 7SM OVC080 02/M01 A2979 RMK AO2 SLP093 T00171006

METARs EXPIRÉS :
  • 220952Z 26009KT 7SM OVC070 02/M01 A2978 RMK AO2 SLP088 T00171006
  • 220852Z 25011KT 7SM SCT065 02/M01 A2979 RMK AO2 SLP093 T00171011 56026

TAF KTOL
Valide du 22 à 12h jusqu'au 23 à 12h UTC


221120Z 2212/2312 29012KT P6SM BKN070
FM221500 32016G27KT P6SM BKN040
FM230200 33012KT P6SM SKC
FIR KZOB / Amérique du Nord



MET'MAP, la Météo Aéronautique d'un coup d'oeil ! - Copyright ORBIFLY Décembre 2007 - Disclaimer

ORBIFLY MET'MAP TEAM :

Programmation & Développement : Alexandra Zaïnal
Conception & Développement : Baudouin d'Aumeries
Co-Programmation & Développement : Marc-Olivier Méhu
Soutien technique & logistique : Manuel Goepfert

Contact : metmap@orbifly.com




SOURCES & CREDITS :

   NOAA       Earth
Advisory